Time;durP1;ratioP1;P1;durP2;ratioP2;P2;SDS_P1;SDS_P2;PMS_P1;PMS_P2;Temp;Humidity;BMP_temperature;BMP_pressure;BME280_temperature;BME280_humidity;BME280_pressure;Samples;Min_cycle;Max_cycle;Signal;HPM_P1;HPM_P2
2022/06/26 00:01:36;;;;;;;;;;;26.20;42.70;;;;;;8464963;28;19920;-41
2022/06/26 00:05:37;;;;;;;;;;;26.10;42.60;;;;;;8465490;27;19912;-41
2022/06/26 00:09:37;;;;;;;;;;;26.20;42.70;;;;;;8465169;28;19919;-41
2022/06/26 00:13:38;;;;;;;;;;;26.10;42.80;;;;;;8464681;28;20334;-40
2022/06/26 00:17:38;;;;;;;;;;;26.10;42.80;;;;;;8465010;28;19914;-41
2022/06/26 00:21:39;;;;;;;;;;;26.10;42.80;;;;;;8464559;28;20292;-40
2022/06/26 00:25:39;;;;;;;;;;;26.10;42.80;;;;;;8464493;28;19915;-40
2022/06/26 00:29:39;;;;;;;;;;;26.10;42.90;;;;;;8464422;28;19916;-40
2022/06/26 00:33:40;;;;;;;;;;;26.10;42.90;;;;;;8464538;28;20135;-41
2022/06/26 00:37:40;;;;;;;;;;;26.10;42.90;;;;;;8464075;28;19908;-41
2022/06/26 00:41:41;;;;;;;;;;;26.10;42.90;;;;;;8464242;28;20015;-41
2022/06/26 00:45:41;;;;;;;;;;;26.10;42.90;;;;;;8464001;28;19992;-41
2022/06/26 00:49:44;;;;;;;;;;;26.10;42.90;;;;;;8463189;28;19957;-41
2022/06/26 00:53:44;;;;;;;;;;;26.10;42.90;;;;;;8464093;28;20500;-41
2022/06/26 00:57:45;;;;;;;;;;;26.00;42.90;;;;;;8464184;28;19909;-41
2022/06/26 01:01:45;;;;;;;;;;;26.00;42.90;;;;;;8463241;28;19920;-41
2022/06/26 01:05:46;;;;;;;;;;;26.00;43.00;;;;;;8462692;28;20387;-41
2022/06/26 01:09:46;;;;;;;;;;;26.00;42.90;;;;;;8463538;28;19918;-41
2022/06/26 01:13:48;;;;;;;;;;;26.00;42.90;;;;;;8463056;28;19914;-42
2022/06/26 01:17:48;;;;;;;;;;;26.00;43.00;;;;;;8463562;28;19976;-41
2022/06/26 01:21:49;;;;;;;;;;;26.00;43.00;;;;;;8463150;28;19919;-41
2022/06/26 01:25:49;;;;;;;;;;;26.00;43.10;;;;;;8462656;28;19947;-41
2022/06/26 01:29:50;;;;;;;;;;;26.00;43.10;;;;;;8463309;28;19908;-42
2022/06/26 01:33:50;;;;;;;;;;;26.00;43.10;;;;;;8463436;28;19916;-41
2022/06/26 01:37:51;;;;;;;;;;;26.00;43.20;;;;;;8462974;28;20068;-41
2022/06/26 01:41:51;;;;;;;;;;;26.00;43.20;;;;;;8458288;28;20376;-41
2022/06/26 01:45:53;;;;;;;;;;;25.90;43.10;;;;;;8447737;28;19915;-40
2022/06/26 01:49:54;;;;;;;;;;;25.90;43.20;;;;;;8462455;28;19911;-41
2022/06/26 01:53:54;;;;;;;;;;;25.90;43.20;;;;;;8463186;28;20367;-41
2022/06/26 01:57:55;;;;;;;;;;;25.90;43.20;;;;;;8463086;28;20006;-40
2022/06/26 02:01:55;;;;;;;;;;;25.90;43.30;;;;;;8467750;28;19920;-41
2022/06/26 02:05:56;;;;;;;;;;;25.90;43.30;;;;;;8469055;28;19939;-40
2022/06/26 02:14:15;;;;;;;;;;;25.90;43.30;;;;;;8468561;28;19919;-40
2022/06/26 02:18:15;;;;;;;;;;;25.90;43.40;;;;;;8469135;28;19908;-40
2022/06/26 02:22:16;;;;;;;;;;;25.90;43.30;;;;;;8468136;27;19920;-41
2022/06/26 02:26:17;;;;;;;;;;;25.90;43.40;;;;;;8468516;28;19916;-41
2022/06/26 02:30:18;;;;;;;;;;;25.90;43.40;;;;;;8468529;28;20131;-41
2022/06/26 02:34:18;;;;;;;;;;;25.90;43.50;;;;;;8467816;28;19972;-41
2022/06/26 02:38:19;;;;;;;;;;;25.90;43.50;;;;;;8468677;28;19908;-41
2022/06/26 02:42:19;;;;;;;;;;;25.80;43.40;;;;;;8468007;28;19920;-41
2022/06/26 02:46:20;;;;;;;;;;;25.90;43.50;;;;;;8467341;28;19912;-41
2022/06/26 02:50:20;;;;;;;;;;;25.80;43.40;;;;;;8467909;28;19958;-41
2022/06/26 02:54:21;;;;;;;;;;;25.80;43.40;;;;;;8467677;28;19950;-41
2022/06/26 02:58:21;;;;;;;;;;;25.80;43.50;;;;;;8467414;28;19956;-41
2022/06/26 03:02:24;;;;;;;;;;;25.80;43.50;;;;;;8467462;28;19927;-41
2022/06/26 03:06:24;;;;;;;;;;;25.80;43.40;;;;;;8467376;28;19919;-41
2022/06/26 03:10:25;;;;;;;;;;;25.80;43.40;;;;;;8466408;28;20003;-41
2022/06/26 03:14:25;;;;;;;;;;;25.80;43.50;;;;;;8466860;28;19931;-41
2022/06/26 03:18:26;;;;;;;;;;;25.80;43.50;;;;;;8467059;28;19907;-41
2022/06/26 03:22:26;;;;;;;;;;;25.80;43.60;;;;;;8466203;28;19919;-41
2022/06/26 03:26:30;;;;;;;;;;;25.70;43.40;;;;;;8465159;28;19972;-41
2022/06/26 03:30:30;;;;;;;;;;;25.70;43.50;;;;;;8466385;28;20000;-41
2022/06/26 03:34:31;;;;;;;;;;;25.80;43.50;;;;;;8465772;28;19916;-41
2022/06/26 03:38:31;;;;;;;;;;;25.70;43.50;;;;;;8466722;28;19915;-41
2022/06/26 03:42:32;;;;;;;;;;;25.70;43.50;;;;;;8465865;28;20023;-41
2022/06/26 03:46:33;;;;;;;;;;;25.70;43.50;;;;;;8465451;28;19908;-41
2022/06/26 03:50:33;;;;;;;;;;;25.70;44.10;;;;;;8465957;27;19946;-41
2022/06/26 03:54:34;;;;;;;;;;;25.70;43.50;;;;;;8465674;28;19912;-41
2022/06/26 03:58:35;;;;;;;;;;;25.70;43.50;;;;;;8431617;28;20326;-41
2022/06/26 04:02:37;;;;;;;;;;;25.70;43.50;;;;;;8456820;28;19944;-42
2022/06/26 04:06:37;;;;;;;;;;;25.70;43.50;;;;;;8464015;27;19990;-41
2022/06/26 04:10:38;;;;;;;;;;;25.70;43.50;;;;;;8464616;28;19949;-41
2022/06/26 04:14:38;;;;;;;;;;;25.70;43.50;;;;;;8465250;28;19912;-41
2022/06/26 04:18:39;;;;;;;;;;;25.70;43.50;;;;;;8465044;28;19957;-42
2022/06/26 04:22:39;;;;;;;;;;;25.70;43.50;;;;;;8463716;28;20265;-41
2022/06/26 04:26:40;;;;;;;;;;;25.60;43.50;;;;;;8464445;28;19922;-41
2022/06/26 04:30:40;;;;;;;;;;;25.70;43.50;;;;;;8464419;28;20292;-41
2022/06/26 04:34:40;;;;;;;;;;;25.60;43.40;;;;;;8464075;28;19922;-41
2022/06/26 04:38:41;;;;;;;;;;;25.60;43.50;;;;;;8464451;28;20018;-41
2022/06/26 04:42:42;;;;;;;;;;;25.60;43.40;;;;;;8464044;28;19973;-41
2022/06/26 04:46:42;;;;;;;;;;;25.70;43.60;;;;;;8463681;28;19946;-41
2022/06/26 04:50:43;;;;;;;;;;;25.70;43.50;;;;;;8463914;28;19990;-41
2022/06/26 04:54:44;;;;;;;;;;;25.60;43.40;;;;;;8463983;27;20016;-41
2022/06/26 04:58:44;;;;;;;;;;;25.60;43.50;;;;;;8463460;28;19911;-40
2022/06/26 05:02:44;;;;;;;;;;;25.60;43.50;;;;;;8463852;28;19919;-40
2022/06/26 05:06:45;;;;;;;;;;;25.60;43.50;;;;;;8463591;28;19908;-40
2022/06/26 05:10:45;;;;;;;;;;;25.60;43.50;;;;;;8463381;28;19912;-41
2022/06/26 05:14:46;;;;;;;;;;;25.60;43.50;;;;;;8463741;28;20396;-41
2022/06/26 05:18:46;;;;;;;;;;;25.60;43.50;;;;;;8463678;28;20019;-41
2022/06/26 05:22:47;;;;;;;;;;;25.60;43.40;;;;;;8462979;28;19920;-41
2022/06/26 05:26:47;;;;;;;;;;;25.70;43.30;;;;;;8463414;28;20330;-41
2022/06/26 05:30:48;;;;;;;;;;;25.80;43.20;;;;;;8463229;28;19951;-41
2022/06/26 05:34:48;;;;;;;;;;;25.80;43.10;;;;;;8465263;28;19960;-40
2022/06/26 05:38:49;;;;;;;;;;;25.80;43.10;;;;;;8470673;28;19998;-41
2022/06/26 05:42:50;;;;;;;;;;;25.80;43.10;;;;;;8470267;27;19916;-40
2022/06/26 05:46:51;;;;;;;;;;;25.80;43.20;;;;;;8469648;27;19995;-41
2022/06/26 05:50:51;;;;;;;;;;;25.80;43.20;;;;;;8469746;28;20303;-41
2022/06/26 05:54:52;;;;;;;;;;;25.80;43.20;;;;;;8469778;28;19951;-41
2022/06/26 05:58:53;;;;;;;;;;;25.80;43.20;;;;;;8469026;28;20390;-41
2022/06/26 06:02:53;;;;;;;;;;;25.80;43.20;;;;;;8469108;28;19920;-40
2022/06/26 06:06:54;;;;;;;;;;;25.70;43.10;;;;;;8469186;28;19907;-41
2022/06/26 06:10:54;;;;;;;;;;;25.80;43.30;;;;;;8468573;28;19916;-41
2022/06/26 06:14:54;;;;;;;;;;;25.70;43.20;;;;;;8469096;28;20261;-41
2022/06/26 06:18:55;;;;;;;;;;;25.70;43.30;;;;;;8469013;28;20359;-41
2022/06/26 06:23:03;;;;;;;;;;;25.70;43.30;;;;;;8467977;27;19928;-41
2022/06/26 06:27:04;;;;;;;;;;;25.70;43.40;;;;;;8468562;27;19916;-41
2022/06/26 06:31:04;;;;;;;;;;;25.70;43.90;;;;;;8468347;28;19920;-41
2022/06/26 06:35:05;;;;;;;;;;;25.70;43.40;;;;;;8468037;27;19908;-42
2022/06/26 06:39:05;;;;;;;;;;;25.70;43.50;;;;;;8468158;28;20022;-40
2022/06/26 06:43:09;;;;;;;;;;;25.70;43.50;;;;;;8467820;28;19969;-41
2022/06/26 06:47:12;;;;;;;;;;;25.70;43.40;;;;;;8466861;27;19912;-40
2022/06/26 06:51:12;;;;;;;;;;;25.70;43.40;;;;;;8467921;28;20356;-40
2022/06/26 06:55:12;;;;;;;;;;;25.60;43.50;;;;;;8467736;28;19918;-41
2022/06/26 06:59:13;;;;;;;;;;;25.60;43.40;;;;;;8467042;28;19915;-41
2022/06/26 07:03:13;;;;;;;;;;;25.70;43.50;;;;;;8467177;28;19919;-41
2022/06/26 07:07:14;;;;;;;;;;;25.60;43.50;;;;;;8467240;27;19911;-41
2022/06/26 07:11:14;;;;;;;;;;;25.60;43.50;;;;;;8465672;28;19912;-41
2022/06/26 07:15:15;;;;;;;;;;;25.70;43.50;;;;;;8467389;28;19908;-41
2022/06/26 07:19:15;;;;;;;;;;;25.60;43.50;;;;;;8467254;28;20407;-41
2022/06/26 07:23:16;;;;;;;;;;;25.60;43.50;;;;;;8466641;28;19926;-41
2022/06/26 07:27:17;;;;;;;;;;;25.60;43.50;;;;;;8466356;28;20371;-41
2022/06/26 07:31:17;;;;;;;;;;;25.60;43.50;;;;;;8466224;27;19912;-41
2022/06/26 07:35:18;;;;;;;;;;;25.60;43.50;;;;;;8466721;28;19950;-41
2022/06/26 07:39:19;;;;;;;;;;;25.70;43.60;;;;;;8466010;28;19916;-41
2022/06/26 07:43:20;;;;;;;;;;;25.60;43.50;;;;;;8465574;28;20016;-41
2022/06/26 07:47:20;;;;;;;;;;;25.70;43.60;;;;;;8465886;28;19912;-41
2022/06/26 07:51:21;;;;;;;;;;;25.70;43.60;;;;;;8465823;28;19907;-41
2022/06/26 07:55:21;;;;;;;;;;;25.70;43.60;;;;;;8465414;27;19912;-41
2022/06/26 07:59:22;;;;;;;;;;;25.70;43.60;;;;;;8464561;28;19915;-41
2022/06/26 08:03:22;;;;;;;;;;;25.70;43.50;;;;;;8465528;28;19916;-41
2022/06/26 08:07:22;;;;;;;;;;;25.70;43.60;;;;;;8464877;28;19911;-41
2022/06/26 08:11:23;;;;;;;;;;;25.70;43.50;;;;;;8465131;28;19912;-41
2022/06/26 08:15:24;;;;;;;;;;;25.70;43.50;;;;;;8465445;28;20329;-41
2022/06/26 08:19:25;;;;;;;;;;;25.70;43.50;;;;;;8464388;28;19911;-41
2022/06/26 08:23:25;;;;;;;;;;;25.80;43.60;;;;;;8465303;28;19941;-41
2022/06/26 08:27:25;;;;;;;;;;;25.80;43.60;;;;;;8464647;28;19915;-41
2022/06/26 08:31:26;;;;;;;;;;;25.80;43.60;;;;;;8464178;28;19911;-41
2022/06/26 08:35:27;;;;;;;;;;;25.80;43.60;;;;;;8464595;28;19915;-41
2022/06/26 08:39:27;;;;;;;;;;;25.80;43.60;;;;;;8462993;28;19915;-41
2022/06/26 08:43:28;;;;;;;;;;;25.80;43.60;;;;;;8454349;28;19923;-40
2022/06/26 08:47:31;;;;;;;;;;;25.90;43.60;;;;;;8439879;28;19912;-41
2022/06/26 08:51:33;;;;;;;;;;;25.90;43.60;;;;;;8436812;27;19922;-41
2022/06/26 08:55:33;;;;;;;;;;;25.90;43.60;;;;;;8447194;28;20014;-40
2022/06/26 08:59:34;;;;;;;;;;;25.90;43.50;;;;;;8447074;28;19912;-40
2022/06/26 09:03:35;;;;;;;;;;;25.90;43.50;;;;;;8444502;28;19923;-40
2022/06/26 09:07:53;;;;;;;;;;;25.90;43.50;;;;;;8442293;28;20948;-40
2022/06/26 09:11:58;;;;;;;;;;;26.00;43.60;;;;;;8446448;28;20002;-41
2022/06/26 09:15:59;;;;;;;;;;;26.00;43.60;;;;;;8457629;28;19959;-40
2022/06/26 09:19:59;;;;;;;;;;;26.00;43.50;;;;;;8454166;28;20300;-40
2022/06/26 09:24:00;;;;;;;;;;;26.00;43.50;;;;;;8446866;28;20322;-41
2022/06/26 09:28:08;;;;;;;;;;;26.00;43.50;;;;;;8441343;28;19915;-41
2022/06/26 09:32:13;;;;;;;;;;;26.00;43.50;;;;;;8441072;28;19928;-40
2022/06/26 09:36:17;;;;;;;;;;;26.00;43.50;;;;;;8445657;28;19938;-40
2022/06/26 09:40:18;;;;;;;;;;;26.10;43.50;;;;;;8460934;28;20360;-39
2022/06/26 09:44:18;;;;;;;;;;;26.10;44.10;;;;;;8455893;28;19915;-40
2022/06/26 09:48:20;;;;;;;;;;;26.10;43.60;;;;;;8441433;28;20380;-40
2022/06/26 09:52:22;;;;;;;;;;;26.10;43.60;;;;;;8448280;28;19927;-42
2022/06/26 09:56:23;;;;;;;;;;;26.10;44.30;;;;;;8430308;28;19924;-43
2022/06/26 10:00:23;;;;;;;;;;;26.10;44.80;;;;;;8453563;28;20322;-42
2022/06/26 10:08:43;;;;;;;;;;;26.00;46.00;;;;;;8456983;28;19934;-42
2022/06/26 10:12:45;;;;;;;;;;;26.10;46.20;;;;;;8460827;28;19980;-44
2022/06/26 10:17:05;;;;;;;;;;;26.10;46.00;;;;;;8454177;28;20361;-43
2022/06/26 10:21:10;;;;;;;;;;;26.20;46.50;;;;;;8458951;28;19927;-42
2022/06/26 10:25:21;;;;;;;;;;;26.20;46.70;;;;;;8455624;28;19920;-44
2022/06/26 10:29:38;;;;;;;;;;;26.20;46.70;;;;;;8459555;28;19998;-44
2022/06/26 10:33:46;;;;;;;;;;;26.30;47.10;;;;;;8447969;28;20392;-44
2022/06/26 10:37:48;;;;;;;;;;;26.30;47.20;;;;;;8457783;28;20027;-43
2022/06/26 10:46:10;;;;;;;;;;;26.40;47.50;;;;;;8451960;28;20395;-43
2022/06/26 10:50:29;;;;;;;;;;;26.40;47.10;;;;;;8445348;28;19924;-45
2022/06/26 10:54:33;;;;;;;;;;;26.40;47.40;;;;;;8463271;27;19999;-43
2022/06/26 10:58:35;;;;;;;;;;;26.50;47.20;;;;;;8462281;27;19920;-43
2022/06/26 11:02:36;;;;;;;;;;;26.50;47.40;;;;;;8462465;28;20402;-43
2022/06/26 11:06:39;;;;;;;;;;;26.50;47.20;;;;;;8448572;28;19933;-45
2022/06/26 11:10:44;;;;;;;;;;;26.50;46.80;;;;;;8460044;28;20416;-46
2022/06/26 11:14:45;;;;;;;;;;;26.50;46.60;;;;;;8453851;28;20284;-45
2022/06/26 11:18:45;;;;;;;;;;;26.60;46.60;;;;;;8448652;28;19923;-44
2022/06/26 11:22:45;;;;;;;;;;;26.60;46.30;;;;;;8450743;28;19920;-46
2022/06/26 11:26:46;;;;;;;;;;;26.60;46.20;;;;;;8463328;28;20006;-45
2022/06/26 11:30:47;;;;;;;;;;;26.60;46.00;;;;;;8451381;28;19912;-44
2022/06/26 11:34:51;;;;;;;;;;;26.60;45.90;;;;;;8460468;27;20285;-44
2022/06/26 11:38:53;;;;;;;;;;;26.60;45.80;;;;;;8450979;27;20028;-43
2022/06/26 11:42:55;;;;;;;;;;;26.60;45.70;;;;;;8459574;28;19921;-43
2022/06/26 11:46:55;;;;;;;;;;;26.70;45.60;;;;;;8449752;28;19918;-44
2022/06/26 11:50:57;;;;;;;;;;;26.70;45.50;;;;;;8455495;28;19915;-43
2022/06/26 11:55:01;;;;;;;;;;;26.70;45.40;;;;;;8453324;28;20353;-45
2022/06/26 11:59:01;;;;;;;;;;;26.70;45.30;;;;;;8452559;28;19923;-44
2022/06/26 12:03:03;;;;;;;;;;;26.70;45.30;;;;;;8457755;28;19928;-44
2022/06/26 12:07:03;;;;;;;;;;;26.80;45.20;;;;;;8463214;28;20352;-46
2022/06/26 12:11:04;;;;;;;;;;;26.80;45.20;;;;;;8459134;28;19920;-44
2022/06/26 12:15:13;;;;;;;;;;;26.80;45.10;;;;;;8451592;28;20375;-44
2022/06/26 12:19:14;;;;;;;;;;;26.80;45.00;;;;;;8448900;28;20010;-43
2022/06/26 12:23:15;;;;;;;;;;;26.80;44.90;;;;;;8456809;28;20288;-44
2022/06/26 12:27:15;;;;;;;;;;;26.80;44.90;;;;;;8454741;28;19998;-44
2022/06/26 12:31:17;;;;;;;;;;;26.90;44.90;;;;;;8456802;28;19912;-44
2022/06/26 12:35:17;;;;;;;;;;;26.90;44.80;;;;;;8445734;28;20392;-44
2022/06/26 15:25:20;;;;;;;;;;;27.50;44.00;;;;;;8452937;28;20284;-45
2022/06/26 15:29:20;;;;;;;;;;;27.50;44.00;;;;;;8432644;28;19919;-44
2022/06/26 15:33:21;;;;;;;;;;;27.50;44.00;;;;;;8433116;28;19956;-45
2022/06/26 15:37:22;;;;;;;;;;;27.50;44.00;;;;;;8431882;28;19919;-44
2022/06/26 15:41:23;;;;;;;;;;;27.50;44.00;;;;;;8432479;28;19924;-44
2022/06/26 15:45:23;;;;;;;;;;;27.50;44.00;;;;;;8432043;28;19908;-45
2022/06/26 15:49:24;;;;;;;;;;;27.50;44.10;;;;;;8431951;28;19912;-43
2022/06/26 15:53:25;;;;;;;;;;;27.50;44.10;;;;;;8432551;28;19912;-44
2022/06/26 15:57:25;;;;;;;;;;;27.50;44.00;;;;;;8431930;28;19965;-43
2022/06/26 16:01:25;;;;;;;;;;;27.50;44.10;;;;;;8430954;28;19916;-45
2022/06/26 16:05:26;;;;;;;;;;;27.50;44.10;;;;;;8430272;28;20382;-44
2022/06/26 16:09:26;;;;;;;;;;;27.50;44.10;;;;;;8431820;28;19951;-44
2022/06/26 16:13:27;;;;;;;;;;;27.50;44.00;;;;;;8430765;28;19915;-44
2022/06/26 16:17:27;;;;;;;;;;;27.50;44.10;;;;;;8430404;28;19919;-44
2022/06/26 16:21:28;;;;;;;;;;;27.50;44.10;;;;;;8430876;28;20292;-43
2022/06/26 16:29:48;;;;;;;;;;;27.50;44.10;;;;;;8467352;28;19960;-44
2022/06/26 16:33:49;;;;;;;;;;;27.50;44.10;;;;;;8464718;28;20253;-44
2022/06/26 16:37:50;;;;;;;;;;;27.50;44.10;;;;;;8463848;28;19912;-44
2022/06/26 16:41:50;;;;;;;;;;;27.50;44.10;;;;;;8464077;28;19962;-44
2022/06/26 16:45:51;;;;;;;;;;;27.50;44.10;;;;;;8464229;28;20323;-43
2022/06/26 16:49:51;;;;;;;;;;;27.50;44.10;;;;;;8463526;28;19918;-47
2022/06/26 16:53:53;;;;;;;;;;;27.50;44.10;;;;;;8464495;28;19953;-43
2022/06/26 16:57:53;;;;;;;;;;;27.50;44.10;;;;;;8463808;28;19958;-43
2022/06/26 17:01:54;;;;;;;;;;;27.50;44.20;;;;;;8463099;28;19920;-43
2022/06/26 17:05:54;;;;;;;;;;;27.50;44.20;;;;;;8463597;28;20029;-45
2022/06/26 17:09:55;;;;;;;;;;;27.50;44.20;;;;;;8463788;28;19934;-43
2022/06/26 17:13:55;;;;;;;;;;;27.50;44.20;;;;;;8463277;28;19907;-43
2022/06/26 17:17:57;;;;;;;;;;;27.50;44.20;;;;;;8463362;28;19958;-44
2022/06/26 17:21:57;;;;;;;;;;;27.50;44.20;;;;;;8463303;28;19955;-44
2022/06/26 17:25:58;;;;;;;;;;;27.50;44.20;;;;;;8463064;28;19919;-44
2022/06/26 17:29:58;;;;;;;;;;;27.50;44.20;;;;;;8466326;28;20349;-45
2022/06/26 17:33:59;;;;;;;;;;;27.50;44.20;;;;;;8470209;28;19912;-43
2022/06/26 17:37:59;;;;;;;;;;;27.50;44.20;;;;;;8469510;28;19919;-43
2022/06/26 17:41:59;;;;;;;;;;;27.50;44.20;;;;;;8469879;28;19964;-43
2022/06/26 17:46:00;;;;;;;;;;;27.50;44.20;;;;;;8469735;28;20318;-44
2022/06/26 17:50:00;;;;;;;;;;;27.50;44.20;;;;;;8469018;28;19911;-45
2022/06/26 17:54:01;;;;;;;;;;;27.50;44.20;;;;;;8469599;28;19911;-43
2022/06/26 17:58:02;;;;;;;;;;;27.50;44.20;;;;;;8469498;28;20006;-43
2022/06/26 18:02:02;;;;;;;;;;;27.40;44.20;;;;;;8468715;28;19924;-44
2022/06/26 18:06:07;;;;;;;;;;;27.50;44.20;;;;;;8469362;28;20299;-45
2022/06/26 18:10:08;;;;;;;;;;;27.50;44.20;;;;;;8469292;28;19918;-43
2022/06/26 18:14:08;;;;;;;;;;;27.40;44.20;;;;;;8468504;28;19918;-45
2022/06/26 18:18:10;;;;;;;;;;;27.40;44.10;;;;;;8468726;28;19919;-44
2022/06/26 18:22:10;;;;;;;;;;;27.50;44.20;;;;;;8468633;28;19998;-44
2022/06/26 18:26:11;;;;;;;;;;;27.40;44.20;;;;;;8449603;28;19923;-44
2022/06/26 18:30:13;;;;;;;;;;;27.40;44.20;;;;;;8468508;28;19907;-44
2022/06/26 18:34:13;;;;;;;;;;;27.40;44.10;;;;;;8468301;28;19915;-45
2022/06/26 18:38:14;;;;;;;;;;;27.40;44.10;;;;;;8467697;28;20314;-47
2022/06/26 18:42:18;;;;;;;;;;;27.40;44.10;;;;;;8467091;28;20295;-44
2022/06/26 18:46:19;;;;;;;;;;;27.40;44.20;;;;;;8467374;28;19919;-44
2022/06/26 18:50:20;;;;;;;;;;;27.40;44.10;;;;;;8467937;28;20353;-44
2022/06/26 18:54:20;;;;;;;;;;;27.40;44.20;;;;;;8467711;28;19912;-45
2022/06/26 18:58:21;;;;;;;;;;;27.40;44.20;;;;;;8467252;28;20406;-43
2022/06/26 19:02:24;;;;;;;;;;;27.40;44.10;;;;;;8467233;28;20292;-45
2022/06/26 19:06:25;;;;;;;;;;;27.40;44.20;;;;;;8459511;28;19972;-44
2022/06/26 19:10:26;;;;;;;;;;;27.30;44.10;;;;;;8466898;28;19982;-45
2022/06/26 19:14:39;;;;;;;;;;;27.40;44.20;;;;;;8467363;28;19911;-44
2022/06/26 19:18:40;;;;;;;;;;;27.30;44.10;;;;;;8466857;28;19912;-45
2022/06/26 19:22:41;;;;;;;;;;;27.30;44.20;;;;;;8466387;28;19919;-44
2022/06/26 19:26:41;;;;;;;;;;;27.30;44.20;;;;;;8466736;28;19916;-45
2022/06/26 19:30:42;;;;;;;;;;;27.30;44.20;;;;;;8466940;28;20368;-44
2022/06/26 19:34:43;;;;;;;;;;;27.30;44.20;;;;;;8465830;28;19919;-44
2022/06/26 19:38:44;;;;;;;;;;;27.30;44.20;;;;;;8466572;28;19939;-43
2022/06/26 19:42:46;;;;;;;;;;;27.30;44.20;;;;;;8466048;28;19920;-43
2022/06/26 19:46:46;;;;;;;;;;;27.30;44.20;;;;;;8465516;28;19911;-45
2022/06/26 19:50:47;;;;;;;;;;;27.30;44.20;;;;;;8465982;28;19912;-44
2022/06/26 19:54:47;;;;;;;;;;;27.30;44.20;;;;;;8464649;28;19919;-44
2022/06/26 19:58:48;;;;;;;;;;;27.30;44.20;;;;;;8465065;28;19911;-44
2022/06/26 20:02:48;;;;;;;;;;;27.30;44.20;;;;;;8465283;28;19919;-43
2022/06/26 20:06:49;;;;;;;;;;;27.30;44.20;;;;;;8465339;28;20331;-44
2022/06/26 20:10:49;;;;;;;;;;;27.30;44.30;;;;;;8464964;28;19908;-43
2022/06/26 20:14:49;;;;;;;;;;;27.20;44.20;;;;;;8465128;28;19915;-44
2022/06/26 20:18:50;;;;;;;;;;;27.20;44.70;;;;;;8465303;28;19969;-45
2022/06/26 20:22:50;;;;;;;;;;;27.20;44.10;;;;;;8464265;28;19966;-45
2022/06/26 20:26:51;;;;;;;;;;;27.20;44.20;;;;;;8464656;28;19916;-44
2022/06/26 20:30:52;;;;;;;;;;;27.20;44.20;;;;;;8465054;28;19911;-44
2022/06/26 20:34:52;;;;;;;;;;;27.20;44.20;;;;;;8464091;28;19916;-44
2022/06/26 20:38:52;;;;;;;;;;;27.20;44.20;;;;;;8464705;28;20387;-43
2022/06/26 20:42:53;;;;;;;;;;;27.20;44.20;;;;;;8464387;28;19966;-43
2022/06/26 20:46:54;;;;;;;;;;;27.20;44.20;;;;;;8463734;28;19918;-42
2022/06/26 20:50:55;;;;;;;;;;;27.20;44.30;;;;;;8464363;28;19915;-44
2022/06/26 20:54:55;;;;;;;;;;;27.20;44.20;;;;;;8464092;28;19912;-44
2022/06/26 20:58:56;;;;;;;;;;;27.20;44.20;;;;;;8463525;28;19918;-45
2022/06/26 21:02:57;;;;;;;;;;;27.20;44.20;;;;;;8445708;28;19919;-45
2022/06/26 21:06:58;;;;;;;;;;;27.20;44.20;;;;;;8463364;28;19919;-43
2022/06/26 21:10:58;;;;;;;;;;;27.20;44.20;;;;;;8463469;28;19914;-43
2022/06/26 21:14:58;;;;;;;;;;;27.10;44.20;;;;;;8463663;28;19911;-43
2022/06/26 21:18:59;;;;;;;;;;;27.10;44.20;;;;;;8463776;28;19911;-43
2022/06/26 21:22:59;;;;;;;;;;;27.20;44.20;;;;;;8462843;28;19919;-44
2022/06/26 21:27:00;;;;;;;;;;;27.20;44.20;;;;;;8463371;28;19915;-44
2022/06/26 21:31:01;;;;;;;;;;;27.10;44.20;;;;;;8463655;28;20603;-44
2022/06/26 21:35:01;;;;;;;;;;;27.20;44.20;;;;;;8462915;28;20003;-44
2022/06/26 21:39:02;;;;;;;;;;;27.10;44.10;;;;;;8463448;28;19912;-44
2022/06/26 21:43:02;;;;;;;;;;;27.10;44.10;;;;;;8463019;28;19930;-45
2022/06/26 21:47:03;;;;;;;;;;;27.10;44.10;;;;;;8462540;28;19973;-43
2022/06/26 21:51:05;;;;;;;;;;;27.10;44.20;;;;;;8463298;28;19908;-42
2022/06/26 21:55:06;;;;;;;;;;;27.10;44.20;;;;;;8463091;28;19912;-42
2022/06/26 21:59:06;;;;;;;;;;;27.10;44.20;;;;;;8462466;28;19912;-43
2022/06/26 22:03:08;;;;;;;;;;;27.00;44.20;;;;;;8453660;28;19920;-43
2022/06/26 22:07:08;;;;;;;;;;;27.00;44.20;;;;;;8462862;28;19914;-43
2022/06/26 22:11:09;;;;;;;;;;;27.10;44.30;;;;;;8462492;28;20352;-44
2022/06/26 22:15:10;;;;;;;;;;;27.00;44.20;;;;;;8462698;28;20006;-43
2022/06/26 22:19:10;;;;;;;;;;;27.00;44.20;;;;;;8468555;28;19915;-43
2022/06/26 22:23:10;;;;;;;;;;;27.00;44.20;;;;;;8468310;28;20303;-44
2022/06/26 22:31:30;;;;;;;;;;;27.00;44.20;;;;;;8470561;28;20032;-44
2022/06/26 22:35:31;;;;;;;;;;;27.00;44.10;;;;;;8468467;28;20352;-44
2022/06/26 22:39:31;;;;;;;;;;;27.00;44.20;;;;;;8468501;28;19991;-44
2022/06/26 22:43:32;;;;;;;;;;;27.00;44.20;;;;;;8449345;28;20420;-43
2022/06/26 22:47:32;;;;;;;;;;;27.00;44.20;;;;;;8468223;28;20267;-44
2022/06/26 22:51:32;;;;;;;;;;;27.00;44.20;;;;;;8468166;28;19918;-44
2022/06/26 22:55:33;;;;;;;;;;;27.00;44.20;;;;;;8467351;28;19920;-44
2022/06/26 22:59:33;;;;;;;;;;;27.00;44.20;;;;;;8467630;28;19919;-44
2022/06/26 23:03:34;;;;;;;;;;;27.00;44.20;;;;;;8467565;28;19924;-44
2022/06/26 23:07:35;;;;;;;;;;;27.00;44.20;;;;;;8467150;28;19919;-43
2022/06/26 23:11:38;;;;;;;;;;;27.00;44.30;;;;;;8467350;28;19960;-43
2022/06/26 23:15:38;;;;;;;;;;;26.90;44.30;;;;;;8467017;28;19912;-43
2022/06/26 23:19:39;;;;;;;;;;;26.90;44.30;;;;;;8466332;28;19915;-44
2022/06/26 23:23:39;;;;;;;;;;;26.90;44.30;;;;;;8466904;28;19995;-43
2022/06/26 23:27:40;;;;;;;;;;;26.90;44.30;;;;;;8466668;28;19947;-44
2022/06/26 23:31:40;;;;;;;;;;;26.90;44.40;;;;;;8466337;28;19912;-43
2022/06/26 23:35:41;;;;;;;;;;;26.90;44.50;;;;;;8466319;28;20003;-44
2022/06/26 23:39:41;;;;;;;;;;;26.90;44.60;;;;;;8466433;28;19937;-44
2022/06/26 23:43:41;;;;;;;;;;;26.90;44.50;;;;;;8465565;28;19965;-45
2022/06/26 23:47:42;;;;;;;;;;;26.80;44.50;;;;;;8465934;28;19930;-45
2022/06/26 23:51:42;;;;;;;;;;;26.90;44.50;;;;;;8466043;28;19998;-44
2022/06/26 23:55:43;;;;;;;;;;;26.80;44.50;;;;;;8465227;28;20003;-44
2022/06/26 23:59:43;;;;;;;;;;;26.80;44.50;;;;;;8465571;28;19912;-44
